Time;durP1;ratioP1;P1;durP2;ratioP2;P2;SDS_P1;SDS_P2;PMS_P1;PMS_P2;Temp;Humidity;BMP_temperature;BMP_pressure;BME280_temperature;BME280_humidity;BME280_pressure;Samples;Min_cycle;Max_cycle;Signal;HPM_P1;HPM_P2
2023/07/18 00:00:30;;;;;;;5.82;2.47;;;12.40;99.90;;;;;;5030853;28;20116;-79
2023/07/18 00:02:56;;;;;;;5.82;2.40;;;12.40;99.90;;;;;;5027034;28;20077;-78
2023/07/18 00:05:22;;;;;;;4.25;2.15;;;12.40;99.90;;;;;;5021389;28;20079;-78
2023/07/18 00:07:48;;;;;;;5.60;2.40;;;12.50;99.90;;;;;;5035928;28;20374;-78
2023/07/18 00:10:18;;;;;;;5.00;2.55;;;12.60;99.90;;;;;;5040889;28;20033;-79
2023/07/18 00:12:43;;;;;;;5.63;2.70;;;12.70;99.90;;;;;;5028816;28;20377;-81
2023/07/18 00:15:09;;;;;;;5.10;3.17;;;12.80;99.90;;;;;;5041022;28;20038;-79
2023/07/18 00:17:36;;;;;;;5.72;2.70;;;12.90;99.90;;;;;;5019365;28;20069;-78
2023/07/18 00:20:09;;;;;;;5.03;2.90;;;13.00;99.90;;;;;;5032382;28;20046;-78
2023/07/18 00:22:35;;;;;;;6.63;2.72;;;13.10;99.90;;;;;;5026871;28;20103;-78
2023/07/18 00:25:02;;;;;;;5.47;2.80;;;13.10;99.90;;;;;;5027985;28;20084;-78
2023/07/18 00:27:28;;;;;;;4.53;2.58;;;13.10;99.90;;;;;;5037410;28;20378;-79
2023/07/18 00:29:55;;;;;;;6.38;2.63;;;13.10;99.90;;;;;;5037551;28;20121;-78
2023/07/18 00:32:23;;;;;;;5.28;2.55;;;13.10;99.90;;;;;;5021023;28;20048;-78
2023/07/18 00:34:56;;;;;;;3.78;2.30;;;13.10;99.90;;;;;;5031025;28;20088;-78
2023/07/18 00:37:25;;;;;;;4.90;2.45;;;13.10;99.90;;;;;;5040705;28;20041;-79
2023/07/18 00:39:52;;;;;;;5.07;2.20;;;13.00;99.90;;;;;;5016155;28;20497;-78
2023/07/18 00:42:18;;;;;;;4.32;2.55;;;12.90;99.90;;;;;;5015800;28;20073;-78
2023/07/18 00:44:44;;;;;;;6.80;3.05;;;12.80;99.90;;;;;;5037837;28;20474;-78
2023/07/18 00:47:10;;;;;;;6.35;2.65;;;12.80;99.90;;;;;;5034232;28;20042;-78
2023/07/18 00:49:36;;;;;;;5.60;2.80;;;12.80;99.90;;;;;;5014807;28;20524;-79
2023/07/18 00:52:04;;;;;;;6.40;2.88;;;12.70;99.90;;;;;;5036940;28;20045;-78
2023/07/18 00:54:30;;;;;;;5.40;2.70;;;12.80;99.90;;;;;;5047945;28;20033;-78
2023/07/18 00:56:56;;;;;;;7.95;2.92;;;12.80;99.90;;;;;;5015593;28;20099;-78
2023/07/18 00:59:23;;;;;;;4.95;2.60;;;12.80;99.90;;;;;;5015976;28;20538;-78
2023/07/18 01:01:49;;;;;;;5.20;2.60;;;12.70;99.90;;;;;;5015308;28;20076;-77
2023/07/18 01:04:18;;;;;;;6.15;2.85;;;12.70;99.90;;;;;;5015701;28;20504;-78
2023/07/18 01:06:44;;;;;;;7.35;2.83;;;12.70;99.90;;;;;;5028244;28;20485;-79
2023/07/18 01:09:10;;;;;;;8.75;3.20;;;12.70;99.90;;;;;;5014975;28;20133;-78
2023/07/18 01:11:36;;;;;;;5.97;2.92;;;12.70;99.90;;;;;;5014242;28;20113;-78
2023/07/18 01:14:03;;;;;;;6.38;2.80;;;12.70;99.90;;;;;;5032190;28;20049;-79
2023/07/18 01:16:29;;;;;;;4.93;2.30;;;12.70;99.90;;;;;;5046046;28;20030;-79
2023/07/18 01:18:55;;;;;;;4.40;2.83;;;12.60;99.90;;;;;;5040460;28;20037;-79
2023/07/18 01:21:21;;;;;;;6.10;2.60;;;12.60;99.90;;;;;;5018410;28;20049;-78
2023/07/18 01:23:47;;;;;;;4.28;2.40;;;12.60;99.90;;;;;;5014926;28;20038;-77
2023/07/18 01:26:14;;;;;;;4.03;2.22;;;12.50;99.90;;;;;;5014842;28;20068;-78
2023/07/18 01:28:40;;;;;;;4.72;2.35;;;12.40;99.90;;;;;;5014994;28;20065;-78
2023/07/18 01:31:05;;;;;;;6.15;3.35;;;12.50;99.90;;;;;;5020634;28;20037;-78
2023/07/18 01:33:32;;;;;;;6.70;3.40;;;12.40;99.90;;;;;;5015047;28;20052;-78
2023/07/18 01:35:58;;;;;;;5.57;3.17;;;12.40;99.90;;;;;;5020037;28;20045;-79
2023/07/18 01:38:30;;;;;;;5.63;3.10;;;12.50;99.90;;;;;;5049924;28;20056;-79
2023/07/18 01:40:57;;;;;;;7.15;3.08;;;12.60;99.90;;;;;;5030691;28;20049;-78
2023/07/18 01:43:23;;;;;;;5.38;2.80;;;12.70;99.90;;;;;;5014599;28;20042;-79
2023/07/18 01:45:49;;;;;;;5.57;2.80;;;12.80;99.90;;;;;;5038214;28;20049;-78
2023/07/18 01:48:16;;;;;;;5.28;2.90;;;12.80;99.90;;;;;;5030225;28;20044;-78
2023/07/18 01:50:41;;;;;;;6.22;3.10;;;12.90;99.90;;;;;;5033843;28;20133;-78
2023/07/18 01:53:08;;;;;;;6.43;2.75;;;12.80;99.90;;;;;;5014796;28;20180;-77
2023/07/18 01:55:33;;;;;;;6.65;2.70;;;12.80;99.90;;;;;;5035426;28;20045;-77
2023/07/18 01:58:00;;;;;;;5.93;3.30;;;12.70;99.90;;;;;;5014065;28;20042;-77
2023/07/18 02:00:25;;;;;;;5.05;2.50;;;12.70;99.90;;;;;;5014460;28;20045;-77
2023/07/18 02:02:52;;;;;;;6.38;3.20;;;12.70;99.90;;;;;;5014362;28;20038;-77
2023/07/18 02:05:21;;;;;;;6.38;2.53;;;12.70;99.90;;;;;;5014235;28;20100;-77
2023/07/18 02:07:47;;;;;;;5.97;3.20;;;12.70;99.90;;;;;;5030187;28;20067;-78
2023/07/18 02:10:20;;;;;;;6.30;3.05;;;12.70;99.90;;;;;;5022045;28;20482;-78
2023/07/18 02:12:47;;;;;;;6.63;3.10;;;12.70;99.90;;;;;;5013147;28;20060;-79
2023/07/18 02:15:13;;;;;;;7.15;3.40;;;12.60;99.90;;;;;;5014107;28;20164;-78
2023/07/18 02:17:39;;;;;;;5.05;2.95;;;12.50;99.90;;;;;;5014173;28;20162;-80
2023/07/18 02:20:08;;;;;;;5.95;3.17;;;12.50;99.90;;;;;;5020830;28;20041;-79
2023/07/18 02:22:34;;;;;;;5.05;3.20;;;12.40;99.90;;;;;;5033840;28;20044;-79
2023/07/18 02:25:02;;;;;;;5.93;2.80;;;12.40;99.90;;;;;;5016830;28;20467;-78
2023/07/18 02:27:28;;;;;;;6.70;3.33;;;12.40;99.90;;;;;;5016014;28;20121;-79
2023/07/18 02:29:53;;;;;;;6.15;3.00;;;12.40;99.90;;;;;;5017723;28;20049;-78
2023/07/18 02:32:20;;;;;;;6.85;3.70;;;12.40;99.90;;;;;;5036346;28;20040;-78
2023/07/18 02:34:45;;;;;;;5.97;3.28;;;12.40;99.90;;;;;;5022100;28;20053;-78
2023/07/18 02:37:11;;;;;;;8.05;3.50;;;12.30;99.90;;;;;;5014033;28;20054;-78
2023/07/18 02:39:38;;;;;;;10.90;3.20;;;12.30;99.90;;;;;;5030362;28;20053;-78
2023/07/18 02:42:06;;;;;;;5.43;3.08;;;12.30;99.90;;;;;;5013823;28;20187;-77
2023/07/18 02:44:32;;;;;;;7.18;2.78;;;12.30;99.90;;;;;;5029645;28;20038;-77
2023/07/18 02:46:58;;;;;;;5.88;3.05;;;12.30;99.90;;;;;;5024362;28;20359;-78
2023/07/18 02:49:24;;;;;;;7.18;3.63;;;12.30;99.90;;;;;;5018062;28;20046;-79
2023/07/18 02:51:50;;;;;;;7.78;3.00;;;12.30;99.90;;;;;;5013723;28;20046;-78
2023/07/18 02:54:15;;;;;;;6.88;2.92;;;12.30;99.90;;;;;;5018810;28;20120;-78
2023/07/18 02:56:41;;;;;;;5.00;3.17;;;12.40;99.90;;;;;;5017229;28;20084;-78
2023/07/18 02:59:07;;;;;;;6.82;3.25;;;12.40;99.90;;;;;;5020328;28;20045;-78
2023/07/18 03:01:34;;;;;;;6.72;3.25;;;12.40;99.90;;;;;;5013215;28;20049;-78
2023/07/18 03:04:00;;;;;;;6.88;3.47;;;12.40;99.90;;;;;;5026452;28;20425;-78
2023/07/18 03:06:27;;;;;;;6.22;3.00;;;12.40;99.90;;;;;;5042852;28;20126;-78
2023/07/18 03:08:53;;;;;;;7.10;3.35;;;12.30;99.90;;;;;;5013060;28;20167;-78
2023/07/18 03:11:19;;;;;;;6.22;3.40;;;12.30;99.90;;;;;;5029838;28;20804;-78
2023/07/18 03:13:45;;;;;;;6.35;3.35;;;12.30;99.90;;;;;;5019497;28;20045;-78
2023/07/18 03:16:10;;;;;;;7.68;3.70;;;12.20;99.90;;;;;;5013257;28;20352;-78
2023/07/18 03:18:37;;;;;;;5.45;3.22;;;12.20;99.90;;;;;;5031764;28;20081;-78
2023/07/18 03:21:03;;;;;;;7.53;3.53;;;12.20;99.90;;;;;;5015898;28;20490;-77
2023/07/18 03:23:29;;;;;;;5.82;3.17;;;12.20;99.90;;;;;;5030122;28;20094;-78
2023/07/18 03:25:55;;;;;;;5.18;3.47;;;12.20;99.90;;;;;;5020858;28;20041;-78
2023/07/18 03:28:21;;;;;;;6.32;3.63;;;12.20;99.90;;;;;;5016030;28;20042;-78
2023/07/18 03:30:47;;;;;;;6.43;2.90;;;12.20;99.90;;;;;;5024898;28;20045;-78
2023/07/18 03:33:12;;;;;;;7.90;3.53;;;12.20;99.90;;;;;;5017523;28;20382;-80
2023/07/18 03:35:39;;;;;;;6.97;3.60;;;12.30;99.90;;;;;;5014265;28;20038;-79
2023/07/18 03:38:05;;;;;;;6.18;3.00;;;12.40;99.90;;;;;;5029699;28;20049;-78
2023/07/18 03:40:30;;;;;;;5.82;3.25;;;12.40;99.90;;;;;;5012710;28;20042;-79
2023/07/18 03:42:56;;;;;;;5.82;3.30;;;12.50;99.90;;;;;;5032262;28;20121;-80
2023/07/18 03:45:22;;;;;;;7.05;3.55;;;12.50;99.90;;;;;;5020585;28;20049;-82
2023/07/18 03:47:47;;;;;;;8.13;3.30;;;12.50;99.90;;;;;;5012783;28;20535;-78
2023/07/18 03:50:16;;;;;;;6.50;3.10;;;12.50;99.90;;;;;;5038840;28;20173;-78
2023/07/18 03:52:42;;;;;;;4.80;2.95;;;12.50;99.90;;;;;;5019101;28;20099;-79
2023/07/18 03:55:08;;;;;;;7.80;3.47;;;12.60;99.90;;;;;;5024596;28;20041;-78
2023/07/18 03:57:34;;;;;;;8.38;3.38;;;12.60;99.90;;;;;;5031519;28;20046;-80
2023/07/18 04:00:13;;;;;;;5.55;2.95;;;12.50;99.90;;;;;;5019942;28;20034;-79
2023/07/18 04:02:42;;;;;;;9.02;3.38;;;12.50;99.90;;;;;;5034924;28;20080;-79
2023/07/18 04:05:08;;;;;;;8.00;3.10;;;12.60;99.90;;;;;;5036010;28;20088;-81
2023/07/18 04:07:34;;;;;;;7.85;3.50;;;12.60;99.90;;;;;;5029843;28;20047;-78
2023/07/18 04:10:00;;;;;;;5.65;3.03;;;12.60;99.90;;;;;;5012206;28;20443;-77
2023/07/18 04:12:25;;;;;;;6.03;3.10;;;12.50;99.90;;;;;;5028358;28;20061;-79
2023/07/18 04:14:51;;;;;;;7.00;3.10;;;12.50;99.90;;;;;;5012868;28;20351;-79
2023/07/18 04:17:17;;;;;;;7.82;3.05;;;12.50;99.90;;;;;;5012671;28;20049;-78
2023/07/18 04:19:43;;;;;;;5.13;2.90;;;12.60;99.90;;;;;;5013711;28;20054;-77
2023/07/18 04:22:08;;;;;;;6.63;3.10;;;12.60;99.90;;;;;;5012684;28;20502;-77
2023/07/18 04:24:35;;;;;;;5.70;3.08;;;12.60;99.90;;;;;;5020063;28;20079;-78
2023/07/18 04:27:00;;;;;;;8.02;2.95;;;12.60;99.90;;;;;;5016409;28;20048;-77
2023/07/18 04:29:26;;;;;;;8.60;3.13;;;12.70;99.90;;;;;;5014831;28;20034;-78
2023/07/18 04:31:52;;;;;;;4.45;2.50;;;12.70;99.90;;;;;;5032164;28;20144;-77
2023/07/18 04:34:18;;;;;;;4.72;2.75;;;12.70;99.90;;;;;;5016309;28;20120;-77
2023/07/18 04:36:44;;;;;;;5.45;2.92;;;12.70;99.90;;;;;;5016386;28;20042;-77
2023/07/18 04:39:10;;;;;;;5.15;2.85;;;12.80;99.90;;;;;;5020210;28;20042;-79
2023/07/18 04:41:36;;;;;;;8.02;3.10;;;12.80;99.90;;;;;;5015897;28;20201;-77
2023/07/18 04:44:03;;;;;;;6.25;2.80;;;12.90;99.90;;;;;;5014831;28;20091;-77
2023/07/18 04:46:29;;;;;;;6.43;2.80;;;13.00;99.90;;;;;;5041177;28;20125;-76
2023/07/18 04:48:54;;;;;;;5.88;2.88;;;13.00;99.90;;;;;;5042390;28;20078;-76
2023/07/18 04:51:20;;;;;;;6.20;2.72;;;13.10;99.90;;;;;;5040885;28;20097;-76
2023/07/18 04:53:46;;;;;;;6.03;2.45;;;13.20;99.90;;;;;;5026074;28;20077;-78
2023/07/18 04:56:11;;;;;;;4.53;2.97;;;13.20;99.90;;;;;;5015828;28;20410;-76
2023/07/18 04:58:37;;;;;;;7.05;2.97;;;13.30;99.90;;;;;;5016355;28;20117;-78
2023/07/18 05:01:03;;;;;;;7.68;3.13;;;13.30;99.90;;;;;;5050452;28;20042;-77
2023/07/18 05:03:29;;;;;;;5.55;2.28;;;13.30;99.90;;;;;;5025539;28;20524;-77
2023/07/18 05:05:56;;;;;;;5.03;2.55;;;13.30;99.90;;;;;;5047840;28;20038;-78
2023/07/18 05:08:22;;;;;;;6.15;2.55;;;13.40;99.90;;;;;;5017277;28;20034;-77
2023/07/18 05:10:47;;;;;;;4.38;2.30;;;13.40;99.90;;;;;;5039404;28;20038;-77
2023/07/18 05:13:13;;;;;;;5.07;2.47;;;13.50;99.90;;;;;;5014350;28;20466;-78
2023/07/18 05:15:42;;;;;;;6.78;2.53;;;13.60;99.90;;;;;;5015274;28;20093;-79
2023/07/18 05:18:07;;;;;;;6.43;2.63;;;13.70;99.90;;;;;;5031594;28;20485;-77
2023/07/18 05:20:33;;;;;;;4.15;2.10;;;13.80;99.90;;;;;;5027679;28;20038;-77
2023/07/18 05:22:59;;;;;;;6.80;2.75;;;13.90;99.90;;;;;;5015688;28;20056;-78
2023/07/18 05:25:25;;;;;;;5.13;2.55;;;14.10;99.90;;;;;;5037138;28;20041;-82
2023/07/18 05:27:51;;;;;;;5.57;2.40;;;14.20;99.90;;;;;;5031356;28;20128;-78
2023/07/18 05:30:19;;;;;;;5.55;2.35;;;14.30;99.90;;;;;;5020619;28;20451;-78
2023/07/18 05:32:46;;;;;;;5.45;2.20;;;14.30;99.90;;;;;;5018654;28;20092;-79
2023/07/18 05:35:15;;;;;;;5.10;2.30;;;14.30;99.90;;;;;;5013711;28;20034;-78
2023/07/18 05:37:42;;;;;;;7.65;2.22;;;14.30;99.90;;;;;;5024615;28;20047;-78
2023/07/18 05:40:12;;;;;;;4.28;2.22;;;14.30;99.90;;;;;;5015871;28;20049;-79
2023/07/18 05:42:41;;;;;;;5.07;2.03;;;14.30;99.90;;;;;;5014925;28;20371;-79
2023/07/18 05:45:08;;;;;;;4.32;2.22;;;14.40;99.90;;;;;;5014753;28;20042;-82
2023/07/18 05:47:35;;;;;;;4.75;2.10;;;14.40;99.90;;;;;;5039132;28;20049;-80
2023/07/18 05:50:02;;;;;;;4.70;2.22;;;14.50;99.90;;;;;;5016459;28;20041;-79
2023/07/18 05:52:28;;;;;;;5.15;2.20;;;14.60;99.90;;;;;;5014865;28;20049;-78
2023/07/18 05:54:53;;;;;;;4.88;2.15;;;14.70;99.90;;;;;;5044582;28;20057;-81
2023/07/18 05:57:19;;;;;;;4.80;2.35;;;14.80;99.90;;;;;;5014714;28;20184;-79
2023/07/18 05:59:45;;;;;;;4.55;2.38;;;14.90;99.90;;;;;;5014770;28;20049;-79
2023/07/18 06:02:11;;;;;;;7.32;2.63;;;14.90;99.90;;;;;;5014164;28;20057;-78
2023/07/18 06:04:37;;;;;;;6.47;2.25;;;15.00;99.90;;;;;;5019322;28;20142;-79
2023/07/18 06:07:03;;;;;;;4.75;2.22;;;15.00;99.90;;;;;;5029890;28;20053;-79
2023/07/18 06:09:28;;;;;;;4.38;2.03;;;15.00;99.90;;;;;;5014247;28;20042;-80
2023/07/18 06:11:54;;;;;;;5.47;2.10;;;15.10;99.90;;;;;;5016040;28;20052;-79
2023/07/18 06:14:20;;;;;;;4.82;2.00;;;15.20;99.90;;;;;;5034095;28;20095;-80
2023/07/18 06:16:47;;;;;;;7.13;2.47;;;15.30;99.90;;;;;;5026534;28;20188;-80
2023/07/18 06:19:13;;;;;;;3.95;2.22;;;15.40;99.90;;;;;;5029616;28;20080;-81
2023/07/18 06:21:39;;;;;;;5.60;2.28;;;15.50;99.90;;;;;;5029790;28;20053;-81
2023/07/18 06:24:06;;;;;;;3.92;1.98;;;15.70;99.90;;;;;;5016949;28;20462;-80
2023/07/18 06:26:32;;;;;;;6.13;2.35;;;15.70;99.90;;;;;;5020737;28;20125;-81
2023/07/18 06:28:57;;;;;;;5.22;2.67;;;15.70;99.90;;;;;;5014077;28;20570;-82
2023/07/18 06:31:23;;;;;;;4.22;2.30;;;15.80;99.90;;;;;;5026485;28;20045;-79
2023/07/18 06:33:49;;;;;;;6.85;2.20;;;15.90;99.90;;;;;;5028969;28;20536;-81
2023/07/18 06:36:15;;;;;;;6.15;2.22;;;15.90;99.90;;;;;;5036328;28;20125;-80
2023/07/18 06:38:41;;;;;;;4.90;2.10;;;16.00;99.90;;;;;;5027759;28;20100;-78
2023/07/18 06:41:07;;;;;;;6.03;2.08;;;16.20;99.90;;;;;;5032857;28;20045;-80
2023/07/18 06:43:33;;;;;;;6.10;2.00;;;16.30;99.90;;;;;;5016443;28;20056;-79
2023/07/18 06:45:59;;;;;;;3.30;1.77;;;16.30;99.90;;;;;;5022260;28;20378;-79
2023/07/18 06:48:24;;;;;;;5.25;1.85;;;16.30;99.90;;;;;;5013328;28;20083;-80
2023/07/18 06:50:53;;;;;;;4.80;2.10;;;16.40;99.90;;;;;;5018210;28;20058;-79
2023/07/18 06:53:21;;;;;;;6.68;2.20;;;16.40;99.90;;;;;;5026329;28;20041;-79
2023/07/18 06:55:49;;;;;;;4.53;2.10;;;16.50;99.90;;;;;;5029375;28;20442;-77
2023/07/18 06:58:18;;;;;;;6.32;2.42;;;16.70;99.90;;;;;;5013508;28;20111;-80
2023/07/18 07:00:45;;;;;;;4.78;2.03;;;16.90;99.90;;;;;;5017331;28;20426;-81
2023/07/18 07:03:11;;;;;;;6.35;2.40;;;17.00;99.90;;;;;;5020889;28;20037;-78
2023/07/18 07:05:38;;;;;;;4.45;1.90;;;17.00;99.90;;;;;;5013413;28;20041;-81
2023/07/18 07:08:08;;;;;;;4.85;2.42;;;17.10;99.90;;;;;;5028846;28;20038;-81
2023/07/18 07:10:39;;;;;;;4.65;2.10;;;17.00;99.90;;;;;;5017102;28;20049;-78
2023/07/18 07:13:05;;;;;;;4.70;2.30;;;16.90;99.90;;;;;;5024666;28;20260;-79
2023/07/18 07:15:32;;;;;;;6.28;2.20;;;16.90;99.90;;;;;;5030901;28;20034;-79
2023/07/18 07:17:58;;;;;;;6.00;2.40;;;16.90;99.90;;;;;;5011020;28;20505;-77
2023/07/18 07:20:25;;;;;;;4.38;2.30;;;16.80;99.90;;;;;;5025954;28;20052;-77
2023/07/18 07:22:54;;;;;;;5.35;1.98;;;16.90;99.90;;;;;;5026778;28;20041;-76
2023/07/18 07:25:20;;;;;;;5.43;2.25;;;16.90;99.90;;;;;;5018841;28;20057;-77
2023/07/18 07:27:47;;;;;;;4.82;2.45;;;17.20;99.90;;;;;;5018589;28;20048;-78
2023/07/18 07:30:15;;;;;;;4.13;2.00;;;17.30;99.90;;;;;;5025211;28;20147;-80
2023/07/18 07:32:45;;;;;;;5.68;2.33;;;17.50;99.90;;;;;;5018064;28;20382;-82
2023/07/18 07:35:11;;;;;;;5.07;1.95;;;17.60;99.90;;;;;;5016167;28;20073;-79
2023/07/18 07:37:40;;;;;;;6.95;2.15;;;17.60;99.90;;;;;;5029118;28;20486;-79
2023/07/18 07:40:09;;;;;;;5.35;2.17;;;17.70;99.90;;;;;;5015094;28;20038;-81
2023/07/18 07:42:35;;;;;;;7.18;2.30;;;17.70;99.90;;;;;;5018050;28;20033;-81
2023/07/18 07:45:00;;;;;;;5.05;2.20;;;17.80;99.90;;;;;;5015166;28;20514;-79
2023/07/18 07:47:26;;;;;;;5.85;2.20;;;17.80;99.90;;;;;;5013796;28;20132;-82
2023/07/18 07:49:52;;;;;;;4.40;2.20;;;17.90;99.90;;;;;;5016069;28;20037;-82
2023/07/18 07:52:17;;;;;;;5.68;2.30;;;18.00;99.90;;;;;;5022384;28;20136;-78
2023/07/18 07:54:44;;;;;;;7.25;2.83;;;18.10;99.90;;;;;;5014170;28;20129;-78
2023/07/18 07:57:10;;;;;;;6.68;2.25;;;18.20;99.90;;;;;;5012261;28;20084;-81
2023/07/18 07:59:36;;;;;;;5.38;2.53;;;18.30;99.90;;;;;;5021062;28;20041;-79
2023/07/18 08:02:03;;;;;;;4.57;2.60;;;18.40;99.90;;;;;;5030330;28;20556;-79
2023/07/18 08:04:29;;;;;;;8.43;2.45;;;18.50;99.90;;;;;;5032093;28;20054;-79
2023/07/18 08:06:57;;;;;;;6.93;2.80;;;18.70;99.90;;;;;;5041913;28;20046;-76
2023/07/18 08:09:23;;;;;;;6.95;2.80;;;18.80;99.90;;;;;;5032223;28;20080;-76
2023/07/18 08:11:49;;;;;;;6.63;2.30;;;19.00;99.90;;;;;;5032990;28;20415;-77
2023/07/18 08:14:15;;;;;;;12.15;3.40;;;19.10;99.90;;;;;;5024827;28;20045;-74
2023/07/18 08:16:44;;;;;;;7.60;2.60;;;19.20;99.90;;;;;;5046570;28;20050;-75
2023/07/18 08:19:09;;;;;;;8.88;2.50;;;19.20;99.90;;;;;;5014922;28;20087;-74
2023/07/18 08:21:35;;;;;;;6.53;2.33;;;19.20;99.90;;;;;;5029414;28;20482;-76
2023/07/18 08:24:02;;;;;;;5.18;2.05;;;19.20;99.90;;;;;;5015981;28;20387;-74
2023/07/18 08:26:27;;;;;;;5.53;2.25;;;19.30;99.90;;;;;;5026549;28;20378;-75
2023/07/18 08:28:53;;;;;;;6.00;2.30;;;19.30;99.90;;;;;;5021192;28;20056;-77
2023/07/18 08:31:19;;;;;;;6.10;2.95;;;19.30;99.90;;;;;;5020226;28;20041;-74
2023/07/18 08:33:45;;;;;;;6.95;2.60;;;19.30;99.90;;;;;;5017084;28;20085;-74
2023/07/18 08:36:11;;;;;;;6.95;2.22;;;19.50;99.90;;;;;;5032190;28;20773;-76
2023/07/18 08:38:37;;;;;;;6.07;2.33;;;19.70;99.90;;;;;;5033254;28;20050;-74
2023/07/18 08:41:03;;;;;;;8.25;2.65;;;19.90;99.90;;;;;;5031681;28;20046;-75
2023/07/18 08:43:31;;;;;;;7.75;2.42;;;20.00;99.90;;;;;;5014701;28;20077;-75
2023/07/18 08:45:58;;;;;;;6.13;2.22;;;20.00;99.90;;;;;;5014569;28;20491;-75
2023/07/18 08:48:24;;;;;;;4.70;2.33;;;20.00;99.90;;;;;;5024153;28;20116;-75
2023/07/18 08:50:53;;;;;;;6.80;2.35;;;20.00;99.90;;;;;;5029551;28;20165;-76
2023/07/18 08:53:19;;;;;;;6.50;1.98;;;20.10;99.90;;;;;;5035066;28;20124;-75
2023/07/18 08:55:45;;;;;;;3.63;1.63;;;20.20;99.90;;;;;;5019184;28;20041;-78
2023/07/18 08:58:11;;;;;;;4.60;2.10;;;20.20;99.90;;;;;;5034084;28;20033;-76
2023/07/18 09:00:38;;;;;;;5.63;1.80;;;20.30;99.90;;;;;;5035766;28;20057;-76
2023/07/18 09:03:04;;;;;;;4.30;1.67;;;20.30;99.90;;;;;;5017372;28;20038;-74
2023/07/18 09:05:35;;;;;;;6.15;1.70;;;20.30;99.90;;;;;;5022009;28;20041;-75
2023/07/18 09:08:02;;;;;;;8.10;2.00;;;20.30;99.90;;;;;;5030724;28;20049;-74
2023/07/18 09:10:29;;;;;;;3.53;1.45;;;20.40;99.90;;;;;;5012362;28;20065;-73
2023/07/18 09:13:09;;;;;;;4.75;1.38;;;20.40;99.90;;;;;;5014035;28;20397;-74
2023/07/18 09:15:36;;;;;;;5.38;1.60;;;20.50;99.90;;;;;;5012751;28;20122;-74
2023/07/18 09:18:07;;;;;;;3.88;1.30;;;20.40;99.90;;;;;;5031826;28;20048;-74
2023/07/18 09:20:33;;;;;;;3.25;1.30;;;20.50;99.90;;;;;;5016791;28;20124;-75
2023/07/18 09:23:02;;;;;;;2.05;0.90;;;20.70;99.90;;;;;;5032182;28;20041;-73
2023/07/18 09:25:29;;;;;;;3.25;1.10;;;20.70;99.90;;;;;;5018213;28;20128;-75
2023/07/18 09:27:56;;;;;;;3.75;1.25;;;20.70;99.90;;;;;;5013693;28;20045;-74
2023/07/18 09:30:23;;;;;;;1.73;0.90;;;20.80;99.90;;;;;;5014305;28;20176;-74
2023/07/18 09:32:52;;;;;;;2.38;0.90;;;20.80;99.90;;;;;;5018506;28;20562;-73
2023/07/18 09:35:18;;;;;;;3.53;1.00;;;20.80;99.90;;;;;;5013643;28;20042;-72
2023/07/18 09:37:46;;;;;;;7.45;1.40;;;20.90;99.90;;;;;;5025919;28;20041;-74
2023/07/18 09:40:17;;;;;;;2.33;1.00;;;20.90;99.90;;;;;;5025893;28;20037;-75
2023/07/18 09:42:48;;;;;;;3.42;0.90;;;21.00;99.90;;;;;;5025342;28;20044;-74
2023/07/18 09:45:15;;;;;;;1.73;0.80;;;21.00;99.90;;;;;;5014252;28;20482;-76
2023/07/18 09:47:42;;;;;;;3.38;1.00;;;21.10;99.90;;;;;;5042904;28;20049;-74
2023/07/18 09:50:09;;;;;;;2.17;0.77;;;21.20;99.90;;;;;;5012902;28;20046;-74
2023/07/18 09:52:46;;;;;;;3.15;1.08;;;21.10;99.90;;;;;;5028686;28;20049;-74
2023/07/18 09:55:14;;;;;;;4.47;1.30;;;21.20;99.90;;;;;;5023535;28;20042;-73
2023/07/18 09:57:41;;;;;;;2.35;0.73;;;21.20;99.90;;;;;;5016807;28;20437;-74
2023/07/18 10:00:10;;;;;;;2.20;1.10;;;21.20;99.90;;;;;;5012691;28;20040;-73
2023/07/18 10:02:36;;;;;;;2.33;0.70;;;21.30;99.90;;;;;;5045172;28;20041;-77
2023/07/18 10:05:03;;;;;;;2.72;0.80;;;21.40;99.90;;;;;;5019105;28;20363;-74
2023/07/18 10:07:34;;;;;;;2.58;0.95;;;21.40;99.90;;;;;;5022085;28;20042;-76
2023/07/18 10:10:01;;;;;;;2.25;0.90;;;21.50;99.90;;;;;;5012278;28;20066;-74
2023/07/18 10:12:27;;;;;;;2.35;0.95;;;21.40;99.90;;;;;;5012590;28;20038;-74
2023/07/18 10:14:57;;;;;;;2.25;1.02;;;21.50;99.90;;;;;;5012746;28;20085;-75
2023/07/18 10:17:36;;;;;;;2.25;1.20;;;21.60;99.90;;;;;;5012585;28;20045;-75
2023/07/18 10:20:10;;;;;;;3.88;1.20;;;21.80;99.90;;;;;;5012520;28;20049;-77
2023/07/18 10:22:35;;;;;;;2.20;0.95;;;21.80;99.90;;;;;;5011577;28;20096;-77
2023/07/18 10:25:06;;;;;;;3.10;0.98;;;21.90;99.90;;;;;;5012699;28;20049;-76
2023/07/18 10:27:43;;;;;;;1.88;0.82;;;21.80;99.90;;;;;;5011450;28;20053;-78
2023/07/18 10:30:15;;;;;;;3.17;0.95;;;21.90;99.90;;;;;;5012646;28;20371;-77
2023/07/18 10:32:43;;;;;;;2.22;0.80;;;22.00;99.90;;;;;;5018492;28;20042;-78
2023/07/18 10:35:10;;;;;;;1.52;0.80;;;22.10;99.90;;;;;;5034822;28;20053;-78
2023/07/18 10:37:36;;;;;;;2.88;0.90;;;22.10;99.90;;;;;;5032441;28;20172;-74
2023/07/18 10:40:05;;;;;;;1.60;0.90;;;22.10;99.90;;;;;;5023789;28;20037;-75
2023/07/18 10:42:34;;;;;;;3.03;1.00;;;22.00;99.90;;;;;;5024335;28;20046;-75
2023/07/18 10:45:09;;;;;;;2.05;1.00;;;22.00;99.90;;;;;;5011956;28;20046;-74
2023/07/18 10:47:36;;;;;;;2.10;0.80;;;22.10;99.90;;;;;;5012322;28;20038;-75
2023/07/18 10:50:03;;;;;;;2.28;0.80;;;22.20;99.90;;;;;;5021366;28;20103;-75
2023/07/18 10:52:30;;;;;;;3.25;1.05;;;22.30;99.90;;;;;;5022260;28;20128;-76
2023/07/18 10:55:00;;;;;;;1.30;0.70;;;22.40;99.90;;;;;;5012256;28;20050;-75
2023/07/18 10:57:32;;;;;;;3.55;1.08;;;22.40;99.90;;;;;;5021200;28;20037;-75
2023/07/18 10:59:59;;;;;;;2.55;1.08;;;22.50;99.90;;;;;;5026470;28;20084;-76
2023/07/18 11:02:27;;;;;;;2.92;0.88;;;22.50;99.90;;;;;;5011720;28;20081;-75
2023/07/18 11:04:53;;;;;;;2.05;0.80;;;22.60;99.90;;;;;;5012020;28;20046;-76
2023/07/18 11:07:31;;;;;;;1.60;0.70;;;22.50;99.90;;;;;;5019558;28;20046;-75
2023/07/18 11:09:57;;;;;;;1.65;0.90;;;22.60;99.90;;;;;;5011831;28;20081;-78
2023/07/18 11:12:23;;;;;;;2.10;1.05;;;22.60;99.90;;;;;;5011865;28;20080;-75
2023/07/18 11:14:48;;;;;;;2.42;0.88;;;22.70;99.90;;;;;;5011815;28;20045;-75
2023/07/18 11:17:19;;;;;;;2.85;0.88;;;22.70;99.90;;;;;;5011788;28;20045;-76
2023/07/18 11:19:47;;;;;;;1.60;0.82;;;22.90;99.90;;;;;;5018026;28;20048;-74
2023/07/18 11:22:13;;;;;;;2.53;0.80;;;23.10;99.90;;;;;;5021856;28;20037;-75
2023/07/18 11:24:45;;;;;;;2.65;0.70;;;23.10;99.90;;;;;;5033434;28;20501;-74
2023/07/18 11:27:31;;;;;;;2.28;0.70;;;23.20;99.90;;;;;;5011708;28;20049;-75
2023/07/18 11:29:57;;;;;;;;;;;23.30;99.90;;;;;;5028817;28;20041;-76
2023/07/18 11:32:40;;;;;;;1.52;0.70;;;23.30;99.90;;;;;;5025225;28;20397;-76
2023/07/18 11:35:11;;;;;;;2.28;0.60;;;23.20;99.90;;;;;;5027551;28;20054;-74
2023/07/18 11:37:41;;;;;;;1.80;0.70;;;23.20;99.90;;;;;;5022520;28;20167;-78
2023/07/18 11:40:08;;;;;;;2.88;0.70;;;23.20;99.90;;;;;;5021667;28;20128;-76
2023/07/18 11:42:51;;;;;;;2.38;0.80;;;23.10;99.90;;;;;;5014139;28;20034;-76
2023/07/18 11:45:27;;;;;;;1.40;0.65;;;23.30;99.90;;;;;;5010161;28;20141;-77
2023/07/18 11:47:58;;;;;;;2.33;0.70;;;23.50;99.90;;;;;;5011906;28;20085;-77
2023/07/18 11:50:28;;;;;;;1.65;0.75;;;23.70;99.90;;;;;;5011258;28;20540;-77
2023/07/18 11:52:54;;;;;;;2.97;0.90;;;23.90;99.90;;;;;;5011551;28;20423;-77
2023/07/18 11:55:22;;;;;;;2.65;0.80;;;24.10;99.90;;;;;;5011709;28;20085;-77
2023/07/18 11:57:48;;;;;;;1.55;0.82;;;24.10;99.90;;;;;;5011228;28;20041;-76
2023/07/18 12:00:15;;;;;;;2.10;0.80;;;24.00;99.90;;;;;;4994060;28;20475;-76
2023/07/18 12:02:43;;;;;;;2.88;0.70;;;23.90;99.90;;;;;;5011690;28;20054;-76
2023/07/18 12:05:10;;;;;;;2.17;0.80;;;23.80;99.90;;;;;;5013532;28;20122;-78
2023/07/18 12:07:36;;;;;;;1.83;0.90;;;23.70;99.90;;;;;;5031303;28;20045;-78
2023/07/18 12:10:08;;;;;;;2.50;0.90;;;23.70;99.90;;;;;;5030936;28;20393;-78
2023/07/18 12:12:34;;;;;;;2.08;0.63;;;23.80;99.90;;;;;;5030581;28;20045;-76
2023/07/18 12:15:01;;;;;;;1.52;0.57;;;23.90;99.90;;;;;;5031096;28;20086;-77
2023/07/18 12:17:27;;;;;;;1.90;0.90;;;24.20;99.90;;;;;;5031285;28;20054;-78
2023/07/18 12:19:52;;;;;;;2.17;0.70;;;24.70;99.90;;;;;;5031267;28;20584;-78
2023/07/18 12:22:18;;;;;;;2.08;0.90;;;24.70;99.90;;;;;;5030734;28;20068;-75
2023/07/18 12:24:44;;;;;;;1.40;0.60;;;24.60;99.90;;;;;;5031670;28;20049;-75
2023/07/18 12:27:12;;;;;;;1.38;0.70;;;24.50;99.90;;;;;;5031246;28;20052;-76
2023/07/18 12:29:38;;;;;;;3.00;0.90;;;24.60;99.90;;;;;;5030858;28;20045;-78
2023/07/18 12:32:04;;;;;;;1.60;0.80;;;24.60;99.90;;;;;;5030877;28;20047;-76
2023/07/18 12:34:30;;;;;;;2.20;0.70;;;24.60;99.90;;;;;;5030971;28;20516;-76
2023/07/18 12:36:56;;;;;;;2.67;0.70;;;24.70;99.90;;;;;;5030780;28;20042;-77
2023/07/18 12:39:22;;;;;;;2.55;0.93;;;24.40;99.90;;;;;;5013523;28;20045;-77
2023/07/18 12:41:49;;;;;;;2.13;0.75;;;24.20;99.90;;;;;;5030683;28;20045;-76
2023/07/18 12:44:19;;;;;;;2.53;0.80;;;24.00;99.90;;;;;;5028776;28;20033;-77
2023/07/18 12:46:46;;;;;;;2.85;0.90;;;24.10;99.90;;;;;;5033740;28;20041;-77